sensor_id;sensor_type;location;lat;lon;timestamp;temperature;humidity
67868;SHT31;54672;46.096;14.470;2022-10-01T00:00:49;13.28;99.99
67868;SHT31;54672;46.096;14.470;2022-10-01T00:03:16;13.28;99.99
67868;SHT31;54672;46.096;14.470;2022-10-01T00:05:41;13.30;99.99
67868;SHT31;54672;46.096;14.470;2022-10-01T00:08:07;13.24;99.99
67868;SHT31;54672;46.096;14.470;2022-10-01T00:10:32;13.30;99.99
67868;SHT31;54672;46.096;14.470;2022-10-01T00:12:58;13.27;99.99
67868;SHT31;54672;46.096;14.470;2022-10-01T00:15:24;13.30;99.99
67868;SHT31;54672;46.096;14.470;2022-10-01T00:17:51;13.30;99.99
67868;SHT31;54672;46.096;14.470;2022-10-01T00:20:17;13.34;99.99
67868;SHT31;54672;46.096;14.470;2022-10-01T00:22:42;13.34;99.99
67868;SHT31;54672;46.096;14.470;2022-10-01T00:25:08;13.31;99.99
67868;SHT31;54672;46.096;14.470;2022-10-01T00:27:34;13.33;99.99
67868;SHT31;54672;46.096;14.470;2022-10-01T00:30:01;13.31;99.99
67868;SHT31;54672;46.096;14.470;2022-10-01T00:32:27;13.31;99.99
67868;SHT31;54672;46.096;14.470;2022-10-01T00:34:57;13.35;99.99
67868;SHT31;54672;46.096;14.470;2022-10-01T00:37:22;13.33;99.99
67868;SHT31;54672;46.096;14.470;2022-10-01T00:39:47;13.33;99.99
67868;SHT31;54672;46.096;14.470;2022-10-01T00:42:21;13.31;99.99
67868;SHT31;54672;46.096;14.470;2022-10-01T00:44:48;13.30;99.99
67868;SHT31;54672;46.096;14.470;2022-10-01T00:47:31;13.34;99.99
67868;SHT31;54672;46.096;14.470;2022-10-01T00:50:03;13.33;99.99
67868;SHT31;54672;46.096;14.470;2022-10-01T00:52:32;13.33;99.99
67868;SHT31;54672;46.096;14.470;2022-10-01T00:55:11;13.35;99.99
67868;SHT31;54672;46.096;14.470;2022-10-01T00:57:38;13.40;99.99
67868;SHT31;54672;46.096;14.470;2022-10-01T01:00:06;13.38;99.99
67868;SHT31;54672;46.096;14.470;2022-10-01T01:02:33;13.35;99.99
67868;SHT31;54672;46.096;14.470;2022-10-01T01:04:59;13.40;99.99
67868;SHT31;54672;46.096;14.470;2022-10-01T01:07:25;13.44;99.99
67868;SHT31;54672;46.096;14.470;2022-10-01T01:09:52;13.44;99.99
67868;SHT31;54672;46.096;14.470;2022-10-01T01:21:54;13.48;99.99
67868;SHT31;54672;46.096;14.470;2022-10-01T01:29:26;13.44;99.99
67868;SHT31;54672;46.096;14.470;2022-10-01T01:31:54;13.45;99.99
67868;SHT31;54672;46.096;14.470;2022-10-01T01:34:26;13.51;99.99
67868;SHT31;54672;46.096;14.470;2022-10-01T01:37:03;13.51;99.99
67868;SHT31;54672;46.096;14.470;2022-10-01T01:39:32;13.44;99.99
67868;SHT31;54672;46.096;14.470;2022-10-01T01:42:03;13.45;99.99
67868;SHT31;54672;46.096;14.470;2022-10-01T01:44:32;13.47;99.99
67868;SHT31;54672;46.096;14.470;2022-10-01T01:47:00;13.47;99.99
67868;SHT31;54672;46.096;14.470;2022-10-01T01:49:27;13.45;99.99
67868;SHT31;54672;46.096;14.470;2022-10-01T01:52:10;13.45;99.99
67868;SHT31;54672;46.096;14.470;2022-10-01T01:54:41;13.41;99.99
67868;SHT31;54672;46.096;14.470;2022-10-01T01:57:09;13.38;99.99
67868;SHT31;54672;46.096;14.470;2022-10-01T01:59:35;13.37;99.99
67868;SHT31;54672;46.096;14.470;2022-10-01T02:02:01;13.37;99.99
67868;SHT31;54672;46.096;14.470;2022-10-01T02:04:39;13.33;99.99
67868;SHT31;54672;46.096;14.470;2022-10-01T02:15:08;13.30;99.99
67868;SHT31;54672;46.096;14.470;2022-10-01T02:20:35;13.35;99.99
67868;SHT31;54672;46.096;14.470;2022-10-01T02:23:06;13.34;99.99
67868;SHT31;54672;46.096;14.470;2022-10-01T02:25:39;13.40;99.99
67868;SHT31;54672;46.096;14.470;2022-10-01T02:28:10;13.41;99.99
67868;SHT31;54672;46.096;14.470;2022-10-01T02:30:37;13.43;99.99
67868;SHT31;54672;46.096;14.470;2022-10-01T02:33:04;13.44;99.99
67868;SHT31;54672;46.096;14.470;2022-10-01T02:35:33;13.48;99.99
67868;SHT31;54672;46.096;14.470;2022-10-01T02:38:01;13.50;99.99
67868;SHT31;54672;46.096;14.470;2022-10-01T02:40:29;13.47;99.99
67868;SHT31;54672;46.096;14.470;2022-10-01T02:43:06;13.40;99.99
67868;SHT31;54672;46.096;14.470;2022-10-01T02:45:35;13.27;99.99
67868;SHT31;54672;46.096;14.470;2022-10-01T02:48:09;13.28;99.99
67868;SHT31;54672;46.096;14.470;2022-10-01T02:50:44;13.31;99.99
67868;SHT31;54672;46.096;14.470;2022-10-01T02:53:18;13.35;99.99
67868;SHT31;54672;46.096;14.470;2022-10-01T02:55:45;13.41;99.99
67868;SHT31;54672;46.096;14.470;2022-10-01T02:58:11;13.43;99.99
67868;SHT31;54672;46.096;14.470;2022-10-01T03:00:36;13.43;99.99
67868;SHT31;54672;46.096;14.470;2022-10-01T03:03:02;13.44;99.99
67868;SHT31;54672;46.096;14.470;2022-10-01T03:05:28;13.25;99.99
67868;SHT31;54672;46.096;14.470;2022-10-01T03:07:53;13.18;99.99
67868;SHT31;54672;46.096;14.470;2022-10-01T03:10:18;13.14;99.99
67868;SHT31;54672;46.096;14.470;2022-10-01T03:12:44;13.07;99.99
67868;SHT31;54672;46.096;14.470;2022-10-01T03:15:15;13.07;99.99
67868;SHT31;54672;46.096;14.470;2022-10-01T03:17:41;13.11;99.99
67868;SHT31;54672;46.096;14.470;2022-10-01T03:20:07;13.06;99.99
67868;SHT31;54672;46.096;14.470;2022-10-01T03:22:33;13.11;99.99
67868;SHT31;54672;46.096;14.470;2022-10-01T03:24:59;13.10;99.99
67868;SHT31;54672;46.096;14.470;2022-10-01T03:27:24;13.10;99.99
67868;SHT31;54672;46.096;14.470;2022-10-01T03:29:50;13.10;99.99
67868;SHT31;54672;46.096;14.470;2022-10-01T03:32:16;13.17;99.99
67868;SHT31;54672;46.096;14.470;2022-10-01T03:34:42;13.24;99.99
67868;SHT31;54672;46.096;14.470;2022-10-01T03:37:07;13.27;99.99
67868;SHT31;54672;46.096;14.470;2022-10-01T03:39:33;13.31;99.99
67868;SHT31;54672;46.096;14.470;2022-10-01T03:41:59;13.31;99.99
67868;SHT31;54672;46.096;14.470;2022-10-01T03:44:24;13.28;99.99
67868;SHT31;54672;46.096;14.470;2022-10-01T03:46:52;13.28;99.99
67868;SHT31;54672;46.096;14.470;2022-10-01T03:49:17;13.34;99.99
67868;SHT31;54672;46.096;14.470;2022-10-01T03:51:43;13.35;99.99
67868;SHT31;54672;46.096;14.470;2022-10-01T03:54:09;13.38;99.99
67868;SHT31;54672;46.096;14.470;2022-10-01T03:56:35;13.45;99.99
67868;SHT31;54672;46.096;14.470;2022-10-01T03:59:02;13.43;99.99
67868;SHT31;54672;46.096;14.470;2022-10-01T04:01:27;13.43;99.99
67868;SHT31;54672;46.096;14.470;2022-10-01T04:03:53;13.38;99.99
67868;SHT31;54672;46.096;14.470;2022-10-01T04:06:18;13.37;99.99
67868;SHT31;54672;46.096;14.470;2022-10-01T04:08:44;13.48;99.99
67868;SHT31;54672;46.096;14.470;2022-10-01T04:11:09;13.43;99.99
67868;SHT31;54672;46.096;14.470;2022-10-01T04:13:35;13.41;99.99
67868;SHT31;54672;46.096;14.470;2022-10-01T04:16:02;13.41;99.99
67868;SHT31;54672;46.096;14.470;2022-10-01T04:18:27;13.38;99.99
67868;SHT31;54672;46.096;14.470;2022-10-01T04:20:53;13.41;99.99
67868;SHT31;54672;46.096;14.470;2022-10-01T04:23:18;13.44;99.99
67868;SHT31;54672;46.096;14.470;2022-10-01T04:25:44;13.45;99.99
67868;SHT31;54672;46.096;14.470;2022-10-01T04:28:11;13.45;99.99
67868;SHT31;54672;46.096;14.470;2022-10-01T04:30:40;13.43;99.99
67868;SHT31;54672;46.096;14.470;2022-10-01T04:33:06;13.41;99.99
67868;SHT31;54672;46.096;14.470;2022-10-01T04:35:33;13.43;99.99
67868;SHT31;54672;46.096;14.470;2022-10-01T04:38:01;13.45;99.99
67868;SHT31;54672;46.096;14.470;2022-10-01T04:40:28;13.48;99.99
67868;SHT31;54672;46.096;14.470;2022-10-01T04:42:54;13.37;99.99
67868;SHT31;54672;46.096;14.470;2022-10-01T04:45:20;13.43;99.99
67868;SHT31;54672;46.096;14.470;2022-10-01T04:47:50;13.48;99.99
67868;SHT31;54672;46.096;14.470;2022-10-01T04:50:17;13.34;99.99
67868;SHT31;54672;46.096;14.470;2022-10-01T04:52:43;13.33;99.99
67868;SHT31;54672;46.096;14.470;2022-10-01T04:55:08;13.27;99.99
67868;SHT31;54672;46.096;14.470;2022-10-01T04:57:35;13.27;99.99
67868;SHT31;54672;46.096;14.470;2022-10-01T05:00:01;13.44;99.99
67868;SHT31;54672;46.096;14.470;2022-10-01T05:02:27;13.47;99.99
67868;SHT31;54672;46.096;14.470;2022-10-01T05:04:53;13.48;99.99
67868;SHT31;54672;46.096;14.470;2022-10-01T05:07:20;13.47;99.99
67868;SHT31;54672;46.096;14.470;2022-10-01T05:09:47;13.41;99.99
67868;SHT31;54672;46.096;14.470;2022-10-01T05:12:12;13.44;99.99
67868;SHT31;54672;46.096;14.470;2022-10-01T05:14:38;13.41;99.99
67868;SHT31;54672;46.096;14.470;2022-10-01T05:17:03;13.43;99.99
67868;SHT31;54672;46.096;14.470;2022-10-01T05:19:30;13.37;99.99
67868;SHT31;54672;46.096;14.470;2022-10-01T05:21:56;13.37;99.99
67868;SHT31;54672;46.096;14.470;2022-10-01T05:24:21;13.33;99.99
67868;SHT31;54672;46.096;14.470;2022-10-01T05:26:46;13.28;99.99
67868;SHT31;54672;46.096;14.470;2022-10-01T05:29:12;13.31;99.99
67868;SHT31;54672;46.096;14.470;2022-10-01T05:31:39;13.41;99.99
67868;SHT31;54672;46.096;14.470;2022-10-01T05:34:07;13.45;99.99
67868;SHT31;54672;46.096;14.470;2022-10-01T05:36:32;13.45;99.99
67868;SHT31;54672;46.096;14.470;2022-10-01T05:38:58;13.47;99.99
67868;SHT31;54672;46.096;14.470;2022-10-01T05:41:23;13.38;99.99
67868;SHT31;54672;46.096;14.470;2022-10-01T05:43:48;13.30;99.99
67868;SHT31;54672;46.096;14.470;2022-10-01T05:46:15;13.31;99.99
67868;SHT31;54672;46.096;14.470;2022-10-01T05:48:40;13.25;99.99
67868;SHT31;54672;46.096;14.470;2022-10-01T05:51:06;13.30;99.99
67868;SHT31;54672;46.096;14.470;2022-10-01T05:53:36;13.24;99.99
67868;SHT31;54672;46.096;14.470;2022-10-01T05:56:03;13.21;99.99
67868;SHT31;54672;46.096;14.470;2022-10-01T05:58:28;13.25;99.99
67868;SHT31;54672;46.096;14.470;2022-10-01T06:00:54;13.24;99.99
67868;SHT31;54672;46.096;14.470;2022-10-01T06:03:20;13.23;99.99
67868;SHT31;54672;46.096;14.470;2022-10-01T06:05:46;13.27;99.99
67868;SHT31;54672;46.096;14.470;2022-10-01T06:08:12;13.37;99.99
67868;SHT31;54672;46.096;14.470;2022-10-01T06:10:37;13.45;99.99
67868;SHT31;54672;46.096;14.470;2022-10-01T06:13:03;13.53;99.99
67868;SHT31;54672;46.096;14.470;2022-10-01T06:15:37;13.58;99.99
67868;SHT31;54672;46.096;14.470;2022-10-01T06:18:07;13.66;99.99
67868;SHT31;54672;46.096;14.470;2022-10-01T06:20:33;13.75;99.99
67868;SHT31;54672;46.096;14.470;2022-10-01T06:22:59;13.82;99.99
67868;SHT31;54672;46.096;14.470;2022-10-01T06:25:26;13.86;99.99
67868;SHT31;54672;46.096;14.470;2022-10-01T06:27:55;13.87;99.99
67868;SHT31;54672;46.096;14.470;2022-10-01T06:30:22;13.96;99.99
67868;SHT31;54672;46.096;14.470;2022-10-01T06:33:00;14.09;99.99
67868;SHT31;54672;46.096;14.470;2022-10-01T06:35:32;14.05;99.81
67868;SHT31;54672;46.096;14.470;2022-10-01T06:37:58;14.02;99.80
67868;SHT31;54672;46.096;14.470;2022-10-01T06:40:26;14.08;99.91
67868;SHT31;54672;46.096;14.470;2022-10-01T06:42:53;14.05;99.79
67868;SHT31;54672;46.096;14.470;2022-10-01T06:45:23;14.03;99.98
67868;SHT31;54672;46.096;14.470;2022-10-01T06:47:59;14.17;99.99
67868;SHT31;54672;46.096;14.470;2022-10-01T06:50:29;14.27;99.99
67868;SHT31;54672;46.096;14.470;2022-10-01T06:52:55;14.19;99.53
67868;SHT31;54672;46.096;14.470;2022-10-01T06:55:24;14.06;99.99
67868;SHT31;54672;46.096;14.470;2022-10-01T06:58:18;14.15;99.99
67868;SHT31;54672;46.096;14.470;2022-10-01T07:00:45;14.06;99.58
67868;SHT31;54672;46.096;14.470;2022-10-01T07:03:19;14.15;99.25
67868;SHT31;54672;46.096;14.470;2022-10-01T07:05:46;14.26;99.46
67868;SHT31;54672;46.096;14.470;2022-10-01T07:08:12;14.51;99.61
67868;SHT31;54672;46.096;14.470;2022-10-01T07:10:38;14.48;98.97
67868;SHT31;54672;46.096;14.470;2022-10-01T07:13:14;14.70;99.04
67868;SHT31;54672;46.096;14.470;2022-10-01T07:15:41;14.94;98.46
67868;SHT31;54672;46.096;14.470;2022-10-01T07:18:07;15.04;98.07
67868;SHT31;54672;46.096;14.470;2022-10-01T07:20:36;15.06;97.14
67868;SHT31;54672;46.096;14.470;2022-10-01T07:23:04;15.08;97.22
67868;SHT31;54672;46.096;14.470;2022-10-01T07:25:30;15.33;96.60
67868;SHT31;54672;46.096;14.470;2022-10-01T07:28:01;15.57;95.34
67868;SHT31;54672;46.096;14.470;2022-10-01T07:30:29;15.66;95.38
67868;SHT31;54672;46.096;14.470;2022-10-01T07:32:54;15.43;95.32
67868;SHT31;54672;46.096;14.470;2022-10-01T07:35:20;15.53;95.33
67868;SHT31;54672;46.096;14.470;2022-10-01T07:37:49;15.96;94.14
67868;SHT31;54672;46.096;14.470;2022-10-01T07:40:16;15.79;94.77
67868;SHT31;54672;46.096;14.470;2022-10-01T07:42:42;16.03;94.42
67868;SHT31;54672;46.096;14.470;2022-10-01T07:45:09;15.60;95.75
67868;SHT31;54672;46.096;14.470;2022-10-01T07:47:36;15.36;95.95
67868;SHT31;54672;46.096;14.470;2022-10-01T07:50:02;15.89;95.21
67868;SHT31;54672;46.096;14.470;2022-10-01T07:52:27;15.87;93.56
67868;SHT31;54672;46.096;14.470;2022-10-01T07:54:53;15.74;94.28
67868;SHT31;54672;46.096;14.470;2022-10-01T07:57:18;16.20;92.97
67868;SHT31;54672;46.096;14.470;2022-10-01T07:59:44;16.29;92.77
67868;SHT31;54672;46.096;14.470;2022-10-01T08:02:18;16.93;91.66
67868;SHT31;54672;46.096;14.470;2022-10-01T08:04:43;16.92;90.79
67868;SHT31;54672;46.096;14.470;2022-10-01T08:07:29;17.40;89.39
67868;SHT31;54672;46.096;14.470;2022-10-01T08:09:56;18.44;86.37
67868;SHT31;54672;46.096;14.470;2022-10-01T08:12:21;19.52;81.81
67868;SHT31;54672;46.096;14.470;2022-10-01T08:14:48;19.33;82.38
67868;SHT31;54672;46.096;14.470;2022-10-01T08:17:14;19.29;82.28
67868;SHT31;54672;46.096;14.470;2022-10-01T08:19:39;19.11;82.71
67868;SHT31;54672;46.096;14.470;2022-10-01T08:22:05;18.63;83.48
67868;SHT31;54672;46.096;14.470;2022-10-01T08:24:31;18.15;85.30
67868;SHT31;54672;46.096;14.470;2022-10-01T08:26:59;18.26;85.45
67868;SHT31;54672;46.096;14.470;2022-10-01T08:29:24;17.89;86.37
67868;SHT31;54672;46.096;14.470;2022-10-01T08:31:50;17.64;87.05
67868;SHT31;54672;46.096;14.470;2022-10-01T08:34:15;17.67;86.47
67868;SHT31;54672;46.096;14.470;2022-10-01T08:36:41;17.51;87.99
67868;SHT31;54672;46.096;14.470;2022-10-01T08:39:06;17.57;87.53
67868;SHT31;54672;46.096;14.470;2022-10-01T08:43:58;17.67;87.17
67868;SHT31;54672;46.096;14.470;2022-10-01T08:46:29;17.37;88.24
67868;SHT31;54672;46.096;14.470;2022-10-01T08:54:19;17.00;90.52
67868;SHT31;54672;46.096;14.470;2022-10-01T08:56:43;17.22;90.42
67868;SHT31;54672;46.096;14.470;2022-10-01T09:01:59;17.13;90.04
67868;SHT31;54672;46.096;14.470;2022-10-01T09:04:26;17.14;91.20
67868;SHT31;54672;46.096;14.470;2022-10-01T09:07:02;16.80;91.88
67868;SHT31;54672;46.096;14.470;2022-10-01T09:12:18;17.35;90.54
67868;SHT31;54672;46.096;14.470;2022-10-01T09:20:34;17.81;89.03
67868;SHT31;54672;46.096;14.470;2022-10-01T09:23:29;18.30;87.36
67868;SHT31;54672;46.096;14.470;2022-10-01T09:25:56;18.44;85.45
67868;SHT31;54672;46.096;14.470;2022-10-01T09:28:32;18.29;87.21
67868;SHT31;54672;46.096;14.470;2022-10-01T09:31:03;18.80;83.86
67868;SHT31;54672;46.096;14.470;2022-10-01T09:33:40;19.29;83.21
67868;SHT31;54672;46.096;14.470;2022-10-01T09:36:14;18.67;85.86
67868;SHT31;54672;46.096;14.470;2022-10-01T09:38:55;19.01;81.28
67868;SHT31;54672;46.096;14.470;2022-10-01T09:41:22;19.11;82.04
67868;SHT31;54672;46.096;14.470;2022-10-01T09:43:47;19.65;81.04
67868;SHT31;54672;46.096;14.470;2022-10-01T09:46:15;19.48;78.70
67868;SHT31;54672;46.096;14.470;2022-10-01T09:49:05;19.51;79.01
67868;SHT31;54672;46.096;14.470;2022-10-01T09:51:41;19.49;77.28
67868;SHT31;54672;46.096;14.470;2022-10-01T09:56:50;19.52;75.35
67868;SHT31;54672;46.096;14.470;2022-10-01T09:59:22;19.11;77.82
67868;SHT31;54672;46.096;14.470;2022-10-01T10:01:59;18.98;76.76
67868;SHT31;54672;46.096;14.470;2022-10-01T10:04:26;18.67;77.20
67868;SHT31;54672;46.096;14.470;2022-10-01T10:06:59;18.50;79.00
67868;SHT31;54672;46.096;14.470;2022-10-01T10:09:29;18.60;77.58
67868;SHT31;54672;46.096;14.470;2022-10-01T10:11:55;18.88;78.45
67868;SHT31;54672;46.096;14.470;2022-10-01T10:14:34;19.08;77.77
67868;SHT31;54672;46.096;14.470;2022-10-01T10:17:12;19.28;77.12
67868;SHT31;54672;46.096;14.470;2022-10-01T10:19:45;19.41;76.02
67868;SHT31;54672;46.096;14.470;2022-10-01T10:22:21;19.46;76.49
67868;SHT31;54672;46.096;14.470;2022-10-01T10:24:49;19.51;74.75
67868;SHT31;54672;46.096;14.470;2022-10-01T10:27:26;19.56;75.47
67868;SHT31;54672;46.096;14.470;2022-10-01T10:30:14;19.52;75.72
67868;SHT31;54672;46.096;14.470;2022-10-01T10:32:41;19.49;73.97
67868;SHT31;54672;46.096;14.470;2022-10-01T10:35:10;19.67;74.25
67868;SHT31;54672;46.096;14.470;2022-10-01T10:37:52;19.79;74.73
67868;SHT31;54672;46.096;14.470;2022-10-01T10:40:21;19.49;73.18
67868;SHT31;54672;46.096;14.470;2022-10-01T10:42:54;19.56;71.89
67868;SHT31;54672;46.096;14.470;2022-10-01T10:45:35;19.82;71.43
67868;SHT31;54672;46.096;14.470;2022-10-01T10:48:03;19.76;71.95
67868;SHT31;54672;46.096;14.470;2022-10-01T10:50:32;19.76;71.78
67868;SHT31;54672;46.096;14.470;2022-10-01T10:53:20;19.74;70.71
67868;SHT31;54672;46.096;14.470;2022-10-01T10:56:03;19.74;71.83
67868;SHT31;54672;46.096;14.470;2022-10-01T10:58:34;19.74;70.36
67868;SHT31;54672;46.096;14.470;2022-10-01T11:01:16;19.89;70.47
67868;SHT31;54672;46.096;14.470;2022-10-01T11:03:49;20.00;69.73
67868;SHT31;54672;46.096;14.470;2022-10-01T11:06:17;19.89;70.50
67868;SHT31;54672;46.096;14.470;2022-10-01T11:08:45;19.92;70.98
67868;SHT31;54672;46.096;14.470;2022-10-01T11:11:39;19.92;70.03
67868;SHT31;54672;46.096;14.470;2022-10-01T11:14:20;20.21;70.16
67868;SHT31;54672;46.096;14.470;2022-10-01T11:28:39;19.96;68.69
67868;SHT31;54672;46.096;14.470;2022-10-01T11:34:13;19.84;66.94
67868;SHT31;54672;46.096;14.470;2022-10-01T11:39:41;20.04;68.83
67868;SHT31;54672;46.096;14.470;2022-10-01T11:42:12;20.06;67.43
67868;SHT31;54672;46.096;14.470;2022-10-01T11:44:49;19.79;67.76
67868;SHT31;54672;46.096;14.470;2022-10-01T11:47:30;20.23;68.09
67868;SHT31;54672;46.096;14.470;2022-10-01T11:52:35;20.68;66.72
67868;SHT31;54672;46.096;14.470;2022-10-01T11:55:22;20.76;65.58
67868;SHT31;54672;46.096;14.470;2022-10-01T11:58:14;20.78;65.59
67868;SHT31;54672;46.096;14.470;2022-10-01T12:01:08;20.34;65.74
67868;SHT31;54672;46.096;14.470;2022-10-01T12:03:44;20.59;67.19
67868;SHT31;54672;46.096;14.470;2022-10-01T12:06:16;20.72;66.19
67868;SHT31;54672;46.096;14.470;2022-10-01T12:08:46;20.45;64.94
67868;SHT31;54672;46.096;14.470;2022-10-01T12:14:30;20.72;64.46
67868;SHT31;54672;46.096;14.470;2022-10-01T12:16:45;20.58;63.91
67868;SHT31;54672;46.096;14.470;2022-10-01T12:22:15;20.88;63.99
67868;SHT31;54672;46.096;14.470;2022-10-01T12:24:46;21.02;62.71
67868;SHT31;54672;46.096;14.470;2022-10-01T12:30:20;20.98;63.55
67868;SHT31;54672;46.096;14.470;2022-10-01T12:41:21;20.88;63.09
67868;SHT31;54672;46.096;14.470;2022-10-01T12:49:46;20.86;65.13
67868;SHT31;54672;46.096;14.470;2022-10-01T12:55:11;20.71;65.25
67868;SHT31;54672;46.096;14.470;2022-10-01T12:58:00;20.55;63.56
67868;SHT31;54672;46.096;14.470;2022-10-01T13:00:33;20.34;64.25
67868;SHT31;54672;46.096;14.470;2022-10-01T13:03:51;20.20;64.71
67868;SHT31;54672;46.096;14.470;2022-10-01T13:06:34;20.11;65.60
67868;SHT31;54672;46.096;14.470;2022-10-01T13:09:11;20.13;64.99
67868;SHT31;54672;46.096;14.470;2022-10-01T13:14:29;20.23;65.68
67868;SHT31;54672;46.096;14.470;2022-10-01T13:24:42;20.13;64.99
67868;SHT31;54672;46.096;14.470;2022-10-01T13:27:30;19.93;65.85
67868;SHT31;54672;46.096;14.470;2022-10-01T13:30:13;20.09;65.47
67868;SHT31;54672;46.096;14.470;2022-10-01T13:32:53;20.09;64.49
67868;SHT31;54672;46.096;14.470;2022-10-01T13:35:23;19.98;65.30
67868;SHT31;54672;46.096;14.470;2022-10-01T13:37:50;20.13;64.66
67868;SHT31;54672;46.096;14.470;2022-10-01T13:40:28;20.25;64.55
67868;SHT31;54672;46.096;14.470;2022-10-01T13:45:43;20.24;65.23
67868;SHT31;54672;46.096;14.470;2022-10-01T13:50:35;20.00;65.39
67868;SHT31;54672;46.096;14.470;2022-10-01T13:53:15;19.76;65.55
67868;SHT31;54672;46.096;14.470;2022-10-01T13:55:42;19.73;66.93
67868;SHT31;54672;46.096;14.470;2022-10-01T14:00:57;19.70;66.45
67868;SHT31;54672;46.096;14.470;2022-10-01T14:03:49;19.66;66.42
67868;SHT31;54672;46.096;14.470;2022-10-01T14:09:26;19.49;67.06
67868;SHT31;54672;46.096;14.470;2022-10-01T14:15:05;19.16;67.58
67868;SHT31;54672;46.096;14.470;2022-10-01T14:17:56;18.98;68.40
67868;SHT31;54672;46.096;14.470;2022-10-01T14:20:29;18.90;68.68
67868;SHT31;54672;46.096;14.470;2022-10-01T14:23:12;18.93;68.80
67868;SHT31;54672;46.096;14.470;2022-10-01T14:25:49;18.95;69.31
67868;SHT31;54672;46.096;14.470;2022-10-01T14:28:41;18.85;69.29
67868;SHT31;54672;46.096;14.470;2022-10-01T14:31:38;18.87;69.88
67868;SHT31;54672;46.096;14.470;2022-10-01T14:36:47;18.28;70.09
67868;SHT31;54672;46.096;14.470;2022-10-01T14:39:17;18.46;70.70
67868;SHT31;54672;46.096;14.470;2022-10-01T14:41:43;18.47;71.13
67868;SHT31;54672;46.096;14.470;2022-10-01T14:46:51;18.46;71.28
67868;SHT31;54672;46.096;14.470;2022-10-01T14:49:25;18.43;70.43
67868;SHT31;54672;46.096;14.470;2022-10-01T14:52:06;18.36;70.57
67868;SHT31;54672;46.096;14.470;2022-10-01T14:54:45;18.16;68.59
67868;SHT31;54672;46.096;14.470;2022-10-01T14:57:17;18.21;71.45
67868;SHT31;54672;46.096;14.470;2022-10-01T14:59:47;18.08;69.25
67868;SHT31;54672;46.096;14.470;2022-10-01T15:02:18;18.01;68.86
67868;SHT31;54672;46.096;14.470;2022-10-01T15:04:47;17.88;69.04
67868;SHT31;54672;46.096;14.470;2022-10-01T15:07:13;17.81;69.53
67868;SHT31;54672;46.096;14.470;2022-10-01T15:09:43;17.75;69.60
67868;SHT31;54672;46.096;14.470;2022-10-01T15:12:09;17.55;71.31
67868;SHT31;54672;46.096;14.470;2022-10-01T15:14:35;17.50;71.28
67868;SHT31;54672;46.096;14.470;2022-10-01T15:17:06;17.48;70.70
67868;SHT31;54672;46.096;14.470;2022-10-01T15:19:37;17.50;70.60
67868;SHT31;54672;46.096;14.470;2022-10-01T15:22:05;17.43;70.78
67868;SHT31;54672;46.096;14.470;2022-10-01T15:24:39;17.37;70.95
67868;SHT31;54672;46.096;14.470;2022-10-01T15:27:07;17.33;71.29
67868;SHT31;54672;46.096;14.470;2022-10-01T15:29:33;17.27;71.23
67868;SHT31;54672;46.096;14.470;2022-10-01T15:31:59;17.34;71.44
67868;SHT31;54672;46.096;14.470;2022-10-01T15:34:27;17.06;72.39
67868;SHT31;54672;46.096;14.470;2022-10-01T15:36:54;16.97;72.06
67868;SHT31;54672;46.096;14.470;2022-10-01T15:39:35;16.94;72.87
67868;SHT31;54672;46.096;14.470;2022-10-01T15:42:28;16.97;73.33
67868;SHT31;54672;46.096;14.470;2022-10-01T15:47:34;16.73;74.31
67868;SHT31;54672;46.096;14.470;2022-10-01T15:59:11;16.40;78.41
67868;SHT31;54672;46.096;14.470;2022-10-01T16:01:14;16.26;76.76
67868;SHT31;54672;46.096;14.470;2022-10-01T16:04:03;16.21;79.53
67868;SHT31;54672;46.096;14.470;2022-10-01T16:06:36;16.07;81.10
67868;SHT31;54672;46.096;14.470;2022-10-01T16:09:05;15.91;82.26
67868;SHT31;54672;46.096;14.470;2022-10-01T16:12:04;15.77;81.54
67868;SHT31;54672;46.096;14.470;2022-10-01T16:14:54;15.62;83.61
67868;SHT31;54672;46.096;14.470;2022-10-01T16:19:52;15.38;83.31
67868;SHT31;54672;46.096;14.470;2022-10-01T16:22:23;15.32;83.18
67868;SHT31;54672;46.096;14.470;2022-10-01T16:27:44;15.11;85.17
67868;SHT31;54672;46.096;14.470;2022-10-01T16:30:21;14.96;85.95
67868;SHT31;54672;46.096;14.470;2022-10-01T16:32:48;14.80;86.20
67868;SHT31;54672;46.096;14.470;2022-10-01T16:37:41;14.57;87.54
67868;SHT31;54672;46.096;14.470;2022-10-01T16:40:07;14.46;87.77
67868;SHT31;54672;46.096;14.470;2022-10-01T16:42:33;14.37;88.23
67868;SHT31;54672;46.096;14.470;2022-10-01T16:45:02;14.30;88.61
67868;SHT31;54672;46.096;14.470;2022-10-01T16:47:28;14.22;89.08
67868;SHT31;54672;46.096;14.470;2022-10-01T16:49:54;14.10;89.51
67868;SHT31;54672;46.096;14.470;2022-10-01T16:52:19;14.02;89.72
67868;SHT31;54672;46.096;14.470;2022-10-01T16:54:44;13.98;90.06
67868;SHT31;54672;46.096;14.470;2022-10-01T16:57:12;13.93;90.22
67868;SHT31;54672;46.096;14.470;2022-10-01T16:59:39;13.86;90.36
67868;SHT31;54672;46.096;14.470;2022-10-01T17:02:09;13.79;90.51
67868;SHT31;54672;46.096;14.470;2022-10-01T17:04:35;13.69;91.04
67868;SHT31;54672;46.096;14.470;2022-10-01T17:07:01;13.61;91.25
67868;SHT31;54672;46.096;14.470;2022-10-01T17:09:26;13.55;91.88
67868;SHT31;54672;46.096;14.470;2022-10-01T17:11:52;13.48;92.41
67868;SHT31;54672;46.096;14.470;2022-10-01T17:14:18;13.44;92.45
67868;SHT31;54672;46.096;14.470;2022-10-01T17:16:46;13.40;92.34
67868;SHT31;54672;46.096;14.470;2022-10-01T17:19:11;13.41;92.15
67868;SHT31;54672;46.096;14.470;2022-10-01T17:21:37;13.41;92.28
67868;SHT31;54672;46.096;14.470;2022-10-01T17:24:03;13.37;92.34
67868;SHT31;54672;46.096;14.470;2022-10-01T17:26:28;13.33;92.71
67868;SHT31;54672;46.096;14.470;2022-10-01T17:28:54;13.34;92.50
67868;SHT31;54672;46.096;14.470;2022-10-01T17:31:19;13.27;92.66
67868;SHT31;54672;46.096;14.470;2022-10-01T17:33:45;13.24;92.87
67868;SHT31;54672;46.096;14.470;2022-10-01T17:36:10;13.24;92.80
67868;SHT31;54672;46.096;14.470;2022-10-01T17:38:36;13.21;93.01
67868;SHT31;54672;46.096;14.470;2022-10-01T17:41:04;13.14;93.15
67868;SHT31;54672;46.096;14.470;2022-10-01T17:43:30;13.15;93.42
67868;SHT31;54672;46.096;14.470;2022-10-01T17:45:58;13.13;93.46
67868;SHT31;54672;46.096;14.470;2022-10-01T17:48:25;13.13;93.69
67868;SHT31;54672;46.096;14.470;2022-10-01T17:51:05;13.11;93.83
67868;SHT31;54672;46.096;14.470;2022-10-01T17:53:33;13.02;93.87
67868;SHT31;54672;46.096;14.470;2022-10-01T17:56:04;12.97;93.97